Arethusa — 9HJR9 — position and weather

sailwx.info

Track history (hours):
 
Tides and Currents Weather Stations Pressure Air Temp Water Temp Dewpoint Dewpoint Depression Visibility Wind Speed Wind Dir Waves Ship Positions

Arethusa

Last reported at 2017-May-26 03:50 UTC. Time now 2017-May-26 16:52 UTC.
Position N 43°41' E 007°17'.

Length 60 m; draft 3 m.

Type: Passenger vessel. MMSI: 249069000.

Date/timePositionNaut miles runAvg speedWind from/ knotsBaromVisibWave heightAir tempDewpointWater temp
2017-May-26 03:50N 43°41' E 007°17'3 9.4
2017-May-26 03:30N 43°38' E 007°17'2 3.8
2017-May-26 03:00N 43°36' E 007°17'4 8.2
2017-May-26 02:29N 43°40' E 007°16'0 0.1
2017-May-26 02:00N 43°40' E 007°16'1 2.0
2017-May-26 01:29N 43°40' E 007°17'7 9.8
2017-May-26 00:44N 43°41' E 007°27'310.8
2017-May-26 00:30N 43°42' E 007°31'610.9
2017-May-25 23:56N 43°44' E 007°39'2510.9
2017-May-25 21:38N 43°53' E 008°11'211.1
2017-May-25 21:25N 43°55' E 008°14'410.9
2017-May-25 21:00N 43°58' E 008°18'1010.2
2017-May-25 20:02N 44°04' E 008°29'910.8
2017-May-25 19:15N 44°06' E 008°41'310.7
2017-May-25 19:00N 44°07' E 008°44'510.5
2017-May-25 18:30N 44°08' E 008°51'510.5
2017-May-25 18:00N 44°10' E 008°58'5 9.7
2017-May-25 17:30N 44°12' E 009°04'510.4
2017-May-25 17:00N 44°14' E 009°11'5 9.9
2017-May-25 16:30N 44°17' E 009°16'3 0.2
2017-May-24 20:24N 44°20' E 009°14'0 0.0
2017-May-24 20:00N 44°20' E 009°14'0 0.0
2017-May-24 19:27N 44°20' E 009°14'1 2.0
2017-May-24 18:59N 44°19' E 009°15'510.6
2017-May-24 18:29N 44°16' E 009°20'510.1
2017-May-24 18:00N 44°12' E 009°25'510.3
2017-May-24 17:30N 44°09' E 009°30'510.2
2017-May-24 17:00N 44°05' E 009°36'510.2
2017-May-24 16:30N 44°02' E 009°41'510.5
2017-May-24 16:00N 43°60' E 009°47'4 8.2
2017-May-24 15:30N 44°02' E 009°52'2 3.2
2017-May-24 14:58N 44°03' E 009°51'0 0.0
2017-May-24 14:28N 44°03' E 009°51'0 0.0
2017-May-24 13:28N 44°03' E 009°51'0 0.0
2017-May-24 12:58N 44°03' E 009°51'0 0.0
2017-May-24 12:28N 44°03' E 009°51'0 0.0
2017-May-24 11:58N 44°03' E 009°51'0 0.1
2017-May-24 11:28N 44°03' E 009°51'0 0.0
2017-May-24 10:55N 44°03' E 009°51'0 0.1
2017-May-24 10:28N 44°03' E 009°51'0 0.0
2017-May-24 09:58N 44°03' E 009°51'0 0.0
2017-May-24 09:28N 44°03' E 009°51'0 0.0
2017-May-24 08:58N 44°03' E 009°51'0 0.0
2017-May-24 08:25N 44°03' E 009°51'0 0.0
2017-May-24 07:58N 44°03' E 009°51'0 0.0
2017-May-24 07:25N 44°03' E 009°51'0 0.0
2017-May-24 06:58N 44°03' E 009°51'0 0.0
2017-May-24 06:28N 44°03' E 009°51'0 0.0
2017-May-24 05:58N 44°03' E 009°51'0 0.0
2017-May-24 05:28N 44°03' E 009°51'0 0.0
2017-May-24 04:58N 44°03' E 009°51'0 0.0
2017-May-24 04:28N 44°03' E 009°51'0 0.0
2017-May-24 03:58N 44°03' E 009°51'0 0.0
2017-May-24 03:28N 44°03' E 009°51'0 0.0
2017-May-24 02:58N 44°03' E 009°51'0 0.0
2017-May-24 02:28N 44°03' E 009°51'0 0.0
2017-May-24 01:58N 44°03' E 009°51'0 0.0
2017-May-24 01:28N 44°03' E 009°51'0 0.0
2017-May-24 00:58N 44°03' E 009°51'0 0.0
2017-May-24 00:28N 44°03' E 009°51'0 0.0
2017-May-23 23:58N 44°03' E 009°51'0 0.0
2017-May-23 23:28N 44°03' E 009°51'0 0.0
2017-May-23 22:58N 44°03' E 009°51'0 0.0
2017-May-23 22:28N 44°03' E 009°51'0 0.0
2017-May-23 21:55N 44°03' E 009°51'0 0.0
2017-May-23 21:28N 44°03' E 009°51'0 0.0
2017-May-23 20:58N 44°03' E 009°51'0 0.0
2017-May-23 20:28N 44°03' E 009°51'0 0.0
2017-May-23 19:58N 44°03' E 009°51'0 0.0
2017-May-23 19:28N 44°03' E 009°51'0 0.0
2017-May-23 18:55N 44°03' E 009°51'0 0.0
2017-May-23 18:25N 44°03' E 009°51'0 0.1
2017-May-23 17:58N 44°03' E 009°51'0 0.0
2017-May-23 17:28N 44°03' E 009°51'0 0.0
2017-May-23 16:58N 44°03' E 009°51'0 0.0
2017-May-23 16:28N 44°03' E 009°51'0 0.0
2017-May-23 15:58N 44°03' E 009°51'0 0.1
2017-May-23 15:28N 44°03' E 009°51'0 0.1
2017-May-23 14:58N 44°03' E 009°51'0 0.1
2017-May-23 14:28N 44°03' E 009°51'0 0.0
2017-May-23 13:28N 44°03' E 009°51'0 0.1
2017-May-23 12:58N 44°03' E 009°51'0 0.0
2017-May-23 12:28N 44°03' E 009°51'1 2.4
2017-May-23 12:01N 44°03' E 009°52'510.6
2017-May-23 11:31N 44°00' E 009°59'3 6.0
2017-May-23 10:59N 44°02' E 010°02'0 0.0
2017-May-23 10:29N 44°02' E 010°02'0 0.0
2017-May-23 09:59N 44°02' E 010°02'0 0.0
2017-May-23 09:29N 44°02' E 010°02'0 0.0
2017-May-23 08:59N 44°02' E 010°02'0 0.0
2017-May-23 08:26N 44°02' E 010°02'0 0.0
2017-May-23 08:01N 44°02' E 010°02'0 0.0
2017-May-23 07:31N 44°02' E 010°02'0 0.0
2017-May-23 07:01N 44°02' E 010°02'0 0.0
2017-May-23 06:31N 44°02' E 010°02'0 0.0
2017-May-23 06:01N 44°02' E 010°02'0 0.0
2017-May-23 05:31N 44°02' E 010°02'2 4.7
2017-May-23 05:00N 43°60' E 010°02'2 3.7
2017-May-23 04:31N 43°58' E 010°01'0 0.6
2017-May-23 04:01N 43°58' E 010°01'510.4
2017-May-23 03:31N 43°53' E 009°58'510.4
2017-May-23 03:01N 43°49' E 009°54'510.5
2017-May-23 02:31N 43°44' E 009°51'510.1
2017-May-23 02:00N 43°39' E 009°51'510.3
2017-May-23 01:31N 43°34' E 009°48'510.3
2017-May-23 01:00N 43°29' E 009°46'510.5
2017-May-23 00:31N 43°24' E 009°44'2310.4
2017-May-22 22:16N 43°01' E 009°40'310.5
2017-May-22 21:59N 42°58' E 009°40'510.2
2017-May-22 21:30N 42°53' E 009°41'12 0.5
2017-May-21 21:37N 42°42' E 009°33'110.8
2017-May-21 21:30N 42°43' E 009°35'510.8
2017-May-21 21:00N 42°45' E 009°42'2511.0
2017-May-21 18:43N 42°52' E 010°14'210.3
2017-May-21 18:30N 42°52' E 010°17'3 1.4
2017-May-21 15:57N 42°49' E 010°20'0 0.0
2017-May-21 14:00N 42°49' E 010°20'0 0.0
2017-May-21 09:10N 42°49' E 010°20'0 0.0
2017-May-21 08:59N 42°49' E 010°20'0 0.0
2017-May-21 08:29N 42°49' E 010°20'0 0.0
2017-May-21 08:00N 42°49' E 010°20'0 0.3
2017-May-21 07:24N 42°49' E 010°20'810.7
2017-May-21 06:41N 42°56' E 010°20'211.7
2017-May-21 06:30N 42°59' E 010°19'611.6
2017-May-21 06:01N 43°04' E 010°18'611.5
2017-May-21 05:30N 43°10' E 010°16'611.4
2017-May-21 05:00N 43°15' E 010°15'611.4
2017-May-21 04:30N 43°21' E 010°13'611.3
2017-May-21 04:01N 43°27' E 010°12'510.5
2017-May-21 03:30N 43°32' E 010°14'3 4.3
2017-May-21 02:44N 43°33' E 010°18'0 0.0
2017-May-21 02:29N 43°33' E 010°18'0 0.0
2017-May-21 01:59N 43°33' E 010°18'0 0.0
2017-May-21 01:29N 43°33' E 010°18'0 0.0
2017-May-21 00:41N 43°33' E 010°18'0 0.0
2017-May-21 00:26N 43°33' E 010°18'0 0.0
2017-May-20 23:59N 43°33' E 010°18'0 0.0
2017-May-20 22:38N 43°33' E 010°18'0 0.0
2017-May-20 22:17N 43°33' E 010°18'0 0.0
2017-May-20 21:59N 43°33' E 010°18'0 0.0
2017-May-20 21:23N 43°33' E 010°18'0 0.0
2017-May-20 20:56N 43°33' E 010°18'0 0.0
2017-May-20 20:29N 43°33' E 010°18'0 0.0
2017-May-20 19:59N 43°33' E 010°18'0 0.0
2017-May-20 19:29N 43°33' E 010°18'0 0.0
2017-May-20 18:59N 43°33' E 010°18'0 0.0
2017-May-20 18:29N 43°33' E 010°18'0 0.0
2017-May-20 17:59N 43°33' E 010°18'0 0.0
2017-May-20 17:30N 43°33' E 010°18'0 0.0
2017-May-20 17:00N 43°33' E 010°18'0 0.0
2017-May-20 16:30N 43°33' E 010°18'0 0.7
2017-May-20 16:00N 43°33' E 010°18'0 0.2
2017-May-20 15:30N 43°33' E 010°18'0 0.0
2017-May-20 15:00N 43°33' E 010°18'0 0.0
2017-May-20 14:30N 43°33' E 010°18'0 0.0
2017-May-20 13:27N 43°33' E 010°18'0 0.0
2017-May-20 13:00N 43°33' E 010°18'0 0.0
2017-May-20 12:30N 43°33' E 010°18'0 0.0
2017-May-20 11:21N 43°33' E 010°18'0 0.0
2017-May-20 10:57N 43°33' E 010°18'0 0.0
2017-May-20 10:30N 43°33' E 010°18'0 0.0
2017-May-20 10:00N 43°33' E 010°18'0 0.0
2017-May-20 09:30N 43°33' E 010°18'0 0.0
2017-May-20 09:00N 43°33' E 010°18'0 0.0
2017-May-20 08:30N 43°33' E 010°18'0 0.0
2017-May-20 08:00N 43°33' E 010°18'0 0.0
2017-May-20 07:30N 43°33' E 010°18'0 0.0
2017-May-20 07:00N 43°33' E 010°18'0 0.0
2017-May-20 06:30N 43°33' E 010°18'0 0.0
2017-May-20 06:00N 43°33' E 010°18'0 0.0
2017-May-20 05:30N 43°33' E 010°18'0 0.0
2017-May-20 05:00N 43°33' E 010°18'0 0.0
2017-May-20 04:30N 43°33' E 010°18'0 0.0
2017-May-20 04:00N 43°33' E 010°18'0 0.0
2017-May-20 03:30N 43°33' E 010°18'0 0.0
2017-May-20 03:00N 43°33' E 010°18'0 0.0
2017-May-20 02:30N 43°33' E 010°18'0 0.0
2017-May-20 02:00N 43°33' E 010°18'0 0.0
2017-May-20 01:30N 43°33' E 010°18'0 0.0
2017-May-20 01:00N 43°33' E 010°18'0 0.0
2017-May-20 00:30N 43°33' E 010°18'0 0.0
2017-May-20 00:00N 43°33' E 010°18'0 0.0
2017-May-19 23:30N 43°33' E 010°18'0 0.0
2017-May-19 23:00N 43°33' E 010°18'0 0.0
2017-May-19 22:30N 43°33' E 010°18'0 0.0
2017-May-19 22:00N 43°33' E 010°18'0 0.0
2017-May-19 21:30N 43°33' E 010°18'0 0.0
2017-May-19 21:00N 43°33' E 010°18'0 0.0
2017-May-19 20:30N 43°33' E 010°18'0 0.0
2017-May-19 20:00N 43°33' E 010°18'0 0.0
2017-May-19 19:30N 43°33' E 010°18'0 0.0
2017-May-19 19:00N 43°33' E 010°18'0 0.0
2017-May-19 18:30N 43°33' E 010°18'0 0.0
2017-May-19 18:00N 43°33' E 010°18'0 0.0
2017-May-19 17:30N 43°33' E 010°18'0 0.0
2017-May-19 17:00N 43°33' E 010°18'0 0.0
2017-May-19 16:30N 43°33' E 010°18'0 0.0
2017-May-19 16:00N 43°33' E 010°18'0 0.0
2017-May-19 15:30N 43°33' E 010°18'0 0.0
2017-May-19 15:00N 43°33' E 010°18'0 0.0
2017-May-19 14:00N 43°33' E 010°18'0 0.0
2017-May-19 13:30N 43°33' E 010°18'0 0.0
2017-May-19 13:00N 43°33' E 010°18'1 2.5
2017-May-19 12:30N 43°32' E 010°17'510.3
2017-May-19 12:00N 43°27' E 010°14'510.8
2017-May-19 11:30N 43°22' E 010°15'610.8
2017-May-19 10:58N 43°16' E 010°16'28 4.5
2017-May-19 04:47N 42°49' E 010°20'1 1.7
2017-May-19 04:28N 42°48' E 010°20'0 0.0
2017-May-19 03:59N 42°48' E 010°20'0 0.0
2017-May-19 03:29N 42°48' E 010°20'0 0.0
2017-May-19 03:00N 42°48' E 010°20'0 0.0
2017-May-19 02:30N 42°48' E 010°20'0 0.0
2017-May-19 02:00N 42°48' E 010°20'0 0.0
2017-May-19 01:30N 42°48' E 010°20'0 0.0
2017-May-19 01:00N 42°48' E 010°20'0 0.0
2017-May-19 00:30N 42°48' E 010°20'0 0.0
2017-May-18 23:59N 42°48' E 010°20'0 0.0
2017-May-18 23:30N 42°48' E 010°20'0 0.0
2017-May-18 22:57N 42°48' E 010°20'0 0.0
2017-May-18 22:26N 42°48' E 010°20'0 0.0
2017-May-18 21:47N 42°48' E 010°20'0 0.0
2017-May-18 21:24N 42°48' E 010°20'0 0.0
2017-May-18 20:59N 42°48' E 010°20'0 0.0
2017-May-18 20:30N 42°48' E 010°20'0 0.0
2017-May-18 20:00N 42°48' E 010°20'4 6.3
2017-May-18 19:22N 42°52' E 010°17'710.8
2017-May-18 18:44N 42°51' E 010°07'211.0
2017-May-18 18:30N 42°51' E 010°04'611.0
2017-May-18 17:58N 42°49' E 009°56'510.9
2017-May-18 17:28N 42°47' E 009°50'511.0
2017-May-18 17:00N 42°45' E 009°43'611.2
2017-May-18 16:27N 42°43' E 009°35'511.0
2017-May-18 16:00N 42°42' E 009°29'24 1.8
2017-May-18 02:43N 43°06' E 009°36'210.6
2017-May-18 02:30N 43°08' E 009°37'510.6
2017-May-18 02:00N 43°13' E 009°39'610.8
2017-May-18 01:29N 43°18' E 009°41'510.6
2017-May-18 01:00N 43°23' E 009°43'510.7
2017-May-18 00:30N 43°28' E 009°45'510.9
2017-May-18 00:00N 43°33' E 009°48'510.8
2017-May-17 23:30N 43°38' E 009°50'510.8
2017-May-17 23:00N 43°43' E 009°53'510.8
2017-May-17 22:30N 43°48' E 009°56'510.8
2017-May-17 22:00N 43°53' E 009°58'510.8
2017-May-17 21:30N 43°58' E 010°01'4 6.2
2017-May-17 20:55N 44°02' E 010°02'0 0.0
2017-May-17 20:28N 44°02' E 010°02'0 0.0
2017-May-17 19:58N 44°02' E 010°02'0 0.0
2017-May-17 19:28N 44°02' E 010°02'0 0.0
2017-May-17 18:55N 44°02' E 010°02'0 0.0
2017-May-17 18:25N 44°02' E 010°02'0 0.0
2017-May-17 17:52N 44°02' E 010°02'0 0.0
2017-May-17 17:25N 44°02' E 010°02'0 0.0
2017-May-17 16:49N 44°02' E 010°02'0 0.0
2017-May-17 16:28N 44°02' E 010°02'0 0.0
2017-May-17 15:58N 44°02' E 010°02'0 0.0
2017-May-17 15:28N 44°02' E 010°02'0 0.0
2017-May-17 14:55N 44°02' E 010°02'0 0.0
2017-May-17 14:30N 44°02' E 010°02'0 0.0
2017-May-17 13:30N 44°02' E 010°02'0 0.0
2017-May-17 13:01N 44°02' E 010°02'0 0.0
2017-May-17 12:30N 44°02' E 010°02'0 0.0
2017-May-17 12:00N 44°02' E 010°02'0 0.0
2017-May-17 11:31N 44°02' E 010°02'1 2.5
2017-May-17 11:01N 44°01' E 010°02'510.4
2017-May-17 10:30N 44°03' E 009°56'3 6.3
2017-May-17 10:01N 44°03' E 009°51'0 0.6
2017-May-17 09:29N 44°03' E 009°51'0 0.0
2017-May-17 08:59N 44°03' E 009°51'0 0.0
2017-May-17 08:29N 44°03' E 009°51'0 0.0
2017-May-17 07:59N 44°03' E 009°51'0 0.0
2017-May-17 07:29N 44°03' E 009°51'0 0.0
2017-May-17 06:59N 44°03' E 009°51'0 0.0
2017-May-17 06:29N 44°03' E 009°51'0 0.0
2017-May-17 05:59N 44°03' E 009°51'0 0.0
2017-May-17 05:29N 44°03' E 009°51'0 0.0
2017-May-17 04:59N 44°03' E 009°51'0 0.0
2017-May-17 04:29N 44°03' E 009°51'0 0.0
2017-May-17 03:59N 44°03' E 009°51'0 0.0
2017-May-17 03:29N 44°03' E 009°51'0 0.0
2017-May-17 02:59N 44°03' E 009°51'0 0.0
2017-May-17 02:29N 44°03' E 009°51'0 0.0
2017-May-17 01:59N 44°03' E 009°51'0 0.0
2017-May-17 01:29N 44°03' E 009°51'0 0.0
2017-May-17 00:59N 44°03' E 009°51'0 0.0
2017-May-17 00:29N 44°03' E 009°51'0 0.0
2017-May-16 23:59N 44°03' E 009°51'0 0.0
2017-May-16 23:29N 44°03' E 009°51'0 0.0
2017-May-16 22:56N 44°03' E 009°51'0 0.0
2017-May-16 22:29N 44°03' E 009°51'0 0.0
2017-May-16 21:59N 44°03' E 009°51'0 0.1
2017-May-16 21:23N 44°03' E 009°51'0 0.0
2017-May-16 20:59N 44°03' E 009°51'0 0.0
2017-May-16 20:26N 44°03' E 009°51'0 0.0
2017-May-16 19:59N 44°03' E 009°51'0 0.0
2017-May-16 19:29N 44°03' E 009°51'0 0.0
2017-May-16 18:59N 44°03' E 009°51'0 0.0
2017-May-16 18:29N 44°03' E 009°51'0 0.0
2017-May-16 17:59N 44°03' E 009°51'0 0.0
2017-May-16 17:29N 44°03' E 009°51'0 0.0
2017-May-16 16:59N 44°03' E 009°51'0 0.0
2017-May-16 16:29N 44°03' E 009°51'0 0.0
2017-May-16 15:59N 44°03' E 009°51'0 0.0
2017-May-16 15:29N 44°03' E 009°51'0 0.0
2017-May-16 14:59N 44°03' E 009°51'0 0.0
2017-May-16 13:59N 44°03' E 009°51'0 0.1
2017-May-16 13:29N 44°03' E 009°51'0 0.1
2017-May-16 12:59N 44°03' E 009°51'0 0.1
2017-May-16 12:29N 44°03' E 009°51'0 0.1
2017-May-16 11:59N 44°03' E 009°51'0 0.1
2017-May-16 11:29N 44°03' E 009°51'0 0.0
2017-May-16 10:56N 44°03' E 009°51'0 0.0
2017-May-16 10:29N 44°03' E 009°51'0 0.0
2017-May-16 09:59N 44°03' E 009°51'0 0.1
2017-May-16 09:29N 44°03' E 009°51'0 0.0
2017-May-16 08:59N 44°03' E 009°51'0 0.1
2017-May-16 08:26N 44°03' E 009°51'0 0.0
2017-May-16 07:56N 44°03' E 009°51'0 0.0
2017-May-16 07:29N 44°03' E 009°51'0 0.0
2017-May-16 06:59N 44°03' E 009°51'0 0.0
2017-May-16 06:29N 44°03' E 009°51'0 0.0
2017-May-16 05:59N 44°03' E 009°51'0 0.0
2017-May-16 05:29N 44°03' E 009°51'0 0.0
2017-May-16 04:59N 44°03' E 009°51'0 0.0
2017-May-16 04:29N 44°03' E 009°51'0 0.0
2017-May-16 03:59N 44°03' E 009°51'  
Track history (hours):
 
Tides and Currents Weather Stations Pressure Air Temp Water Temp Dewpoint Dewpoint Depression Visibility Wind Speed Wind Dir Waves Ship Positions

Arethusa

Last reported at 2017-May-26 03:50 UTC. Time now 2017-May-26 16:52 UTC.
Position N 43°41' E 007°17'.

Length 60 m; draft 3 m.

Type: Passenger vessel. MMSI: 249069000.

Date/timePositionNaut miles runAvg speedWind from/ knotsBaromVisibWave heightAir tempDewpointWater temp
2017-May-26 03:50N 43°41' E 007°17'3 9.4
2017-May-26 03:30N 43°38' E 007°17'2 3.8
2017-May-26 03:00N 43°36' E 007°17'4 8.2
2017-May-26 02:29N 43°40' E 007°16'0 0.1
2017-May-26 02:00N 43°40' E 007°16'1 2.0
2017-May-26 01:29N 43°40' E 007°17'7 9.8
2017-May-26 00:44N 43°41' E 007°27'310.8
2017-May-26 00:30N 43°42' E 007°31'610.9
2017-May-25 23:56N 43°44' E 007°39'2510.9
2017-May-25 21:38N 43°53' E 008°11'211.1
2017-May-25 21:25N 43°55' E 008°14'410.9
2017-May-25 21:00N 43°58' E 008°18'1010.2
2017-May-25 20:02N 44°04' E 008°29'910.8
2017-May-25 19:15N 44°06' E 008°41'310.7
2017-May-25 19:00N 44°07' E 008°44'510.5
2017-May-25 18:30N 44°08' E 008°51'510.5
2017-May-25 18:00N 44°10' E 008°58'5 9.7
2017-May-25 17:30N 44°12' E 009°04'510.4
2017-May-25 17:00N 44°14' E 009°11'5 9.9
2017-May-25 16:30N 44°17' E 009°16'3 0.2
2017-May-24 20:24N 44°20' E 009°14'0 0.0
2017-May-24 20:00N 44°20' E 009°14'0 0.0
2017-May-24 19:27N 44°20' E 009°14'1 2.0
2017-May-24 18:59N 44°19' E 009°15'510.6
2017-May-24 18:29N 44°16' E 009°20'510.1
2017-May-24 18:00N 44°12' E 009°25'510.3
2017-May-24 17:30N 44°09' E 009°30'510.2
2017-May-24 17:00N 44°05' E 009°36'510.2
2017-May-24 16:30N 44°02' E 009°41'510.5
2017-May-24 16:00N 43°60' E 009°47'4 8.2
2017-May-24 15:30N 44°02' E 009°52'2 3.2
2017-May-24 14:58N 44°03' E 009°51'0 0.0
2017-May-24 14:28N 44°03' E 009°51'0 0.0
2017-May-24 13:28N 44°03' E 009°51'0 0.0
2017-May-24 12:58N 44°03' E 009°51'0 0.0
2017-May-24 12:28N 44°03' E 009°51'0 0.0
2017-May-24 11:58N 44°03' E 009°51'0 0.1
2017-May-24 11:28N 44°03' E 009°51'0 0.0
2017-May-24 10:55N 44°03' E 009°51'0 0.1
2017-May-24 10:28N 44°03' E 009°51'0 0.0
2017-May-24 09:58N 44°03' E 009°51'0 0.0
2017-May-24 09:28N 44°03' E 009°51'0 0.0
2017-May-24 08:58N 44°03' E 009°51'0 0.0
2017-May-24 08:25N 44°03' E 009°51'0 0.0
2017-May-24 07:58N 44°03' E 009°51'0 0.0
2017-May-24 07:25N 44°03' E 009°51'0 0.0
2017-May-24 06:58N 44°03' E 009°51'0 0.0
2017-May-24 06:28N 44°03' E 009°51'0 0.0
2017-May-24 05:58N 44°03' E 009°51'0 0.0
2017-May-24 05:28N 44°03' E 009°51'0 0.0
2017-May-24 04:58N 44°03' E 009°51'0 0.0
2017-May-24 04:28N 44°03' E 009°51'0 0.0
2017-May-24 03:58N 44°03' E 009°51'0 0.0
2017-May-24 03:28N 44°03' E 009°51'0 0.0
2017-May-24 02:58N 44°03' E 009°51'0 0.0
2017-May-24 02:28N 44°03' E 009°51'0 0.0
2017-May-24 01:58N 44°03' E 009°51'0 0.0
2017-May-24 01:28N 44°03' E 009°51'0 0.0
2017-May-24 00:58N 44°03' E 009°51'0 0.0
2017-May-24 00:28N 44°03' E 009°51'0 0.0
2017-May-23 23:58N 44°03' E 009°51'0 0.0
2017-May-23 23:28N 44°03' E 009°51'0 0.0
2017-May-23 22:58N 44°03' E 009°51'0 0.0
2017-May-23 22:28N 44°03' E 009°51'0 0.0
2017-May-23 21:55N 44°03' E 009°51'0 0.0
2017-May-23 21:28N 44°03' E 009°51'0 0.0
2017-May-23 20:58N 44°03' E 009°51'0 0.0
2017-May-23 20:28N 44°03' E 009°51'0 0.0
2017-May-23 19:58N 44°03' E 009°51'0 0.0
2017-May-23 19:28N 44°03' E 009°51'0 0.0
2017-May-23 18:55N 44°03' E 009°51'0 0.0
2017-May-23 18:25N 44°03' E 009°51'0 0.1
2017-May-23 17:58N 44°03' E 009°51'0 0.0
2017-May-23 17:28N 44°03' E 009°51'0 0.0
2017-May-23 16:58N 44°03' E 009°51'0 0.0
2017-May-23 16:28N 44°03' E 009°51'0 0.0
2017-May-23 15:58N 44°03' E 009°51'0 0.1
2017-May-23 15:28N 44°03' E 009°51'0 0.1
2017-May-23 14:58N 44°03' E 009°51'0 0.1
2017-May-23 14:28N 44°03' E 009°51'0 0.0
2017-May-23 13:28N 44°03' E 009°51'0 0.1
2017-May-23 12:58N 44°03' E 009°51'0 0.0
2017-May-23 12:28N 44°03' E 009°51'1 2.4
2017-May-23 12:01N 44°03' E 009°52'510.6
2017-May-23 11:31N 44°00' E 009°59'3 6.0
2017-May-23 10:59N 44°02' E 010°02'0 0.0
2017-May-23 10:29N 44°02' E 010°02'0 0.0
2017-May-23 09:59N 44°02' E 010°02'0 0.0
2017-May-23 09:29N 44°02' E 010°02'0 0.0
2017-May-23 08:59N 44°02' E 010°02'0 0.0
2017-May-23 08:26N 44°02' E 010°02'0 0.0
2017-May-23 08:01N 44°02' E 010°02'0 0.0
2017-May-23 07:31N 44°02' E 010°02'0 0.0
2017-May-23 07:01N 44°02' E 010°02'0 0.0
2017-May-23 06:31N 44°02' E 010°02'0 0.0
2017-May-23 06:01N 44°02' E 010°02'0 0.0
2017-May-23 05:31N 44°02' E 010°02'2 4.7
2017-May-23 05:00N 43°60' E 010°02'2 3.7
2017-May-23 04:31N 43°58' E 010°01'0 0.6
2017-May-23 04:01N 43°58' E 010°01'510.4
2017-May-23 03:31N 43°53' E 009°58'510.4
2017-May-23 03:01N 43°49' E 009°54'510.5
2017-May-23 02:31N 43°44' E 009°51'510.1
2017-May-23 02:00N 43°39' E 009°51'510.3
2017-May-23 01:31N 43°34' E 009°48'510.3
2017-May-23 01:00N 43°29' E 009°46'510.5
2017-May-23 00:31N 43°24' E 009°44'2310.4
2017-May-22 22:16N 43°01' E 009°40'310.5
2017-May-22 21:59N 42°58' E 009°40'510.2
2017-May-22 21:30N 42°53' E 009°41'12 0.5
2017-May-21 21:37N 42°42' E 009°33'110.8
2017-May-21 21:30N 42°43' E 009°35'510.8
2017-May-21 21:00N 42°45' E 009°42'2511.0
2017-May-21 18:43N 42°52' E 010°14'210.3
2017-May-21 18:30N 42°52' E 010°17'3 1.4
2017-May-21 15:57N 42°49' E 010°20'0 0.0
2017-May-21 14:00N 42°49' E 010°20'0 0.0
2017-May-21 09:10N 42°49' E 010°20'0 0.0
2017-May-21 08:59N 42°49' E 010°20'0 0.0
2017-May-21 08:29N 42°49' E 010°20'0 0.0
2017-May-21 08:00N 42°49' E 010°20'0 0.3
2017-May-21 07:24N 42°49' E 010°20'810.7
2017-May-21 06:41N 42°56' E 010°20'211.7
2017-May-21 06:30N 42°59' E 010°19'611.6
2017-May-21 06:01N 43°04' E 010°18'611.5
2017-May-21 05:30N 43°10' E 010°16'611.4
2017-May-21 05:00N 43°15' E 010°15'611.4
2017-May-21 04:30N 43°21' E 010°13'611.3
2017-May-21 04:01N 43°27' E 010°12'510.5
2017-May-21 03:30N 43°32' E 010°14'3 4.3
2017-May-21 02:44N 43°33' E 010°18'0 0.0
2017-May-21 02:29N 43°33' E 010°18'0 0.0
2017-May-21 01:59N 43°33' E 010°18'0 0.0
2017-May-21 01:29N 43°33' E 010°18'0 0.0
2017-May-21 00:41N 43°33' E 010°18'0 0.0
2017-May-21 00:26N 43°33' E 010°18'0 0.0
2017-May-20 23:59N 43°33' E 010°18'0 0.0
2017-May-20 22:38N 43°33' E 010°18'0 0.0
2017-May-20 22:17N 43°33' E 010°18'0 0.0
2017-May-20 21:59N 43°33' E 010°18'0 0.0
2017-May-20 21:23N 43°33' E 010°18'0 0.0
2017-May-20 20:56N 43°33' E 010°18'0 0.0
2017-May-20 20:29N 43°33' E 010°18'0 0.0
2017-May-20 19:59N 43°33' E 010°18'0 0.0
2017-May-20 19:29N 43°33' E 010°18'0 0.0
2017-May-20 18:59N 43°33' E 010°18'0 0.0
2017-May-20 18:29N 43°33' E 010°18'0 0.0
2017-May-20 17:59N 43°33' E 010°18'0 0.0
2017-May-20 17:30N 43°33' E 010°18'0 0.0
2017-May-20 17:00N 43°33' E 010°18'0 0.0
2017-May-20 16:30N 43°33' E 010°18'0 0.7
2017-May-20 16:00N 43°33' E 010°18'0 0.2
2017-May-20 15:30N 43°33' E 010°18'0 0.0
2017-May-20 15:00N 43°33' E 010°18'0 0.0
2017-May-20 14:30N 43°33' E 010°18'0 0.0
2017-May-20 13:27N 43°33' E 010°18'0 0.0
2017-May-20 13:00N 43°33' E 010°18'0 0.0
2017-May-20 12:30N 43°33' E 010°18'0 0.0
2017-May-20 11:21N 43°33' E 010°18'0 0.0
2017-May-20 10:57N 43°33' E 010°18'0 0.0
2017-May-20 10:30N 43°33' E 010°18'0 0.0
2017-May-20 10:00N 43°33' E 010°18'0 0.0
2017-May-20 09:30N 43°33' E 010°18'0 0.0
2017-May-20 09:00N 43°33' E 010°18'0 0.0
2017-May-20 08:30N 43°33' E 010°18'0 0.0
2017-May-20 08:00N 43°33' E 010°18'0 0.0
2017-May-20 07:30N 43°33' E 010°18'0 0.0
2017-May-20 07:00N 43°33' E 010°18'0 0.0
2017-May-20 06:30N 43°33' E 010°18'0 0.0
2017-May-20 06:00N 43°33' E 010°18'0 0.0
2017-May-20 05:30N 43°33' E 010°18'0 0.0
2017-May-20 05:00N 43°33' E 010°18'0 0.0
2017-May-20 04:30N 43°33' E 010°18'0 0.0
2017-May-20 04:00N 43°33' E 010°18'0 0.0
2017-May-20 03:30N 43°33' E 010°18'0 0.0
2017-May-20 03:00N 43°33' E 010°18'0 0.0
2017-May-20 02:30N 43°33' E 010°18'0 0.0
2017-May-20 02:00N 43°33' E 010°18'0 0.0
2017-May-20 01:30N 43°33' E 010°18'0 0.0
2017-May-20 01:00N 43°33' E 010°18'0 0.0
2017-May-20 00:30N 43°33' E 010°18'0 0.0
2017-May-20 00:00N 43°33' E 010°18'0 0.0
2017-May-19 23:30N 43°33' E 010°18'0 0.0
2017-May-19 23:00N 43°33' E 010°18'0 0.0
2017-May-19 22:30N 43°33' E 010°18'0 0.0
2017-May-19 22:00N 43°33' E 010°18'0 0.0
2017-May-19 21:30N 43°33' E 010°18'0 0.0
2017-May-19 21:00N 43°33' E 010°18'0 0.0
2017-May-19 20:30N 43°33' E 010°18'0 0.0
2017-May-19 20:00N 43°33' E 010°18'0 0.0
2017-May-19 19:30N 43°33' E 010°18'0 0.0
2017-May-19 19:00N 43°33' E 010°18'0 0.0
2017-May-19 18:30N 43°33' E 010°18'0 0.0
2017-May-19 18:00N 43°33' E 010°18'0 0.0
2017-May-19 17:30N 43°33' E 010°18'0 0.0
2017-May-19 17:00N 43°33' E 010°18'0 0.0
2017-May-19 16:30N 43°33' E 010°18'0 0.0
2017-May-19 16:00N 43°33' E 010°18'0 0.0
2017-May-19 15:30N 43°33' E 010°18'0 0.0
2017-May-19 15:00N 43°33' E 010°18'0 0.0
2017-May-19 14:00N 43°33' E 010°18'0 0.0
2017-May-19 13:30N 43°33' E 010°18'0 0.0
2017-May-19 13:00N 43°33' E 010°18'1 2.5
2017-May-19 12:30N 43°32' E 010°17'510.3
2017-May-19 12:00N 43°27' E 010°14'510.8
2017-May-19 11:30N 43°22' E 010°15'610.8
2017-May-19 10:58N 43°16' E 010°16'28 4.5
2017-May-19 04:47N 42°49' E 010°20'1 1.7
2017-May-19 04:28N 42°48' E 010°20'0 0.0
2017-May-19 03:59N 42°48' E 010°20'0 0.0
2017-May-19 03:29N 42°48' E 010°20'0 0.0
2017-May-19 03:00N 42°48' E 010°20'0 0.0
2017-May-19 02:30N 42°48' E 010°20'0 0.0
2017-May-19 02:00N 42°48' E 010°20'0 0.0
2017-May-19 01:30N 42°48' E 010°20'0 0.0
2017-May-19 01:00N 42°48' E 010°20'0 0.0
2017-May-19 00:30N 42°48' E 010°20'0 0.0
2017-May-18 23:59N 42°48' E 010°20'0 0.0
2017-May-18 23:30N 42°48' E 010°20'0 0.0
2017-May-18 22:57N 42°48' E 010°20'0 0.0
2017-May-18 22:26N 42°48' E 010°20'0 0.0
2017-May-18 21:47N 42°48' E 010°20'0 0.0
2017-May-18 21:24N 42°48' E 010°20'0 0.0
2017-May-18 20:59N 42°48' E 010°20'0 0.0
2017-May-18 20:30N 42°48' E 010°20'0 0.0
2017-May-18 20:00N 42°48' E 010°20'4 6.3
2017-May-18 19:22N 42°52' E 010°17'710.8
2017-May-18 18:44N 42°51' E 010°07'211.0
2017-May-18 18:30N 42°51' E 010°04'611.0
2017-May-18 17:58N 42°49' E 009°56'510.9
2017-May-18 17:28N 42°47' E 009°50'511.0
2017-May-18 17:00N 42°45' E 009°43'611.2
2017-May-18 16:27N 42°43' E 009°35'511.0
2017-May-18 16:00N 42°42' E 009°29'24 1.8
2017-May-18 02:43N 43°06' E 009°36'210.6
2017-May-18 02:30N 43°08' E 009°37'510.6
2017-May-18 02:00N 43°13' E 009°39'610.8
2017-May-18 01:29N 43°18' E 009°41'510.6
2017-May-18 01:00N 43°23' E 009°43'510.7
2017-May-18 00:30N 43°28' E 009°45'510.9
2017-May-18 00:00N 43°33' E 009°48'510.8
2017-May-17 23:30N 43°38' E 009°50'510.8
2017-May-17 23:00N 43°43' E 009°53'510.8
2017-May-17 22:30N 43°48' E 009°56'510.8
2017-May-17 22:00N 43°53' E 009°58'510.8
2017-May-17 21:30N 43°58' E 010°01'4 6.2
2017-May-17 20:55N 44°02' E 010°02'0 0.0
2017-May-17 20:28N 44°02' E 010°02'0 0.0
2017-May-17 19:58N 44°02' E 010°02'0 0.0
2017-May-17 19:28N 44°02' E 010°02'0 0.0
2017-May-17 18:55N 44°02' E 010°02'0 0.0
2017-May-17 18:25N 44°02' E 010°02'0 0.0
2017-May-17 17:52N 44°02' E 010°02'0 0.0
2017-May-17 17:25N 44°02' E 010°02'0 0.0
2017-May-17 16:49N 44°02' E 010°02'0 0.0
2017-May-17 16:28N 44°02' E 010°02'0 0.0
2017-May-17 15:58N 44°02' E 010°02'0 0.0
2017-May-17 15:28N 44°02' E 010°02'0 0.0
2017-May-17 14:55N 44°02' E 010°02'0 0.0
2017-May-17 14:30N 44°02' E 010°02'0 0.0
2017-May-17 13:30N 44°02' E 010°02'0 0.0
2017-May-17 13:01N 44°02' E 010°02'0 0.0
2017-May-17 12:30N 44°02' E 010°02'0 0.0
2017-May-17 12:00N 44°02' E 010°02'0 0.0
2017-May-17 11:31N 44°02' E 010°02'1 2.5
2017-May-17 11:01N 44°01' E 010°02'510.4
2017-May-17 10:30N 44°03' E 009°56'3 6.3
2017-May-17 10:01N 44°03' E 009°51'0 0.6
2017-May-17 09:29N 44°03' E 009°51'0 0.0
2017-May-17 08:59N 44°03' E 009°51'0 0.0
2017-May-17 08:29N 44°03' E 009°51'0 0.0
2017-May-17 07:59N 44°03' E 009°51'0 0.0
2017-May-17 07:29N 44°03' E 009°51'0 0.0
2017-May-17 06:59N 44°03' E 009°51'0 0.0
2017-May-17 06:29N 44°03' E 009°51'0 0.0
2017-May-17 05:59N 44°03' E 009°51'0 0.0
2017-May-17 05:29N 44°03' E 009°51'0 0.0
2017-May-17 04:59N 44°03' E 009°51'0 0.0
2017-May-17 04:29N 44°03' E 009°51'0 0.0
2017-May-17 03:59N 44°03' E 009°51'0 0.0
2017-May-17 03:29N 44°03' E 009°51'0 0.0
2017-May-17 02:59N 44°03' E 009°51'0 0.0
2017-May-17 02:29N 44°03' E 009°51'0 0.0
2017-May-17 01:59N 44°03' E 009°51'0 0.0
2017-May-17 01:29N 44°03' E 009°51'0 0.0
2017-May-17 00:59N 44°03' E 009°51'0 0.0
2017-May-17 00:29N 44°03' E 009°51'0 0.0
2017-May-16 23:59N 44°03' E 009°51'0 0.0
2017-May-16 23:29N 44°03' E 009°51'0 0.0
2017-May-16 22:56N 44°03' E 009°51'0 0.0
2017-May-16 22:29N 44°03' E 009°51'0 0.0
2017-May-16 21:59N 44°03' E 009°51'0 0.1
2017-May-16 21:23N 44°03' E 009°51'0 0.0
2017-May-16 20:59N 44°03' E 009°51'0 0.0
2017-May-16 20:26N 44°03' E 009°51'0 0.0
2017-May-16 19:59N 44°03' E 009°51'0 0.0
2017-May-16 19:29N 44°03' E 009°51'0 0.0
2017-May-16 18:59N 44°03' E 009°51'0 0.0
2017-May-16 18:29N 44°03' E 009°51'0 0.0
2017-May-16 17:59N 44°03' E 009°51'0 0.0
2017-May-16 17:29N 44°03' E 009°51'0 0.0
2017-May-16 16:59N 44°03' E 009°51'0 0.0
2017-May-16 16:29N 44°03' E 009°51'0 0.0
2017-May-16 15:59N 44°03' E 009°51'0 0.0
2017-May-16 15:29N 44°03' E 009°51'0 0.0
2017-May-16 14:59N 44°03' E 009°51'0 0.0
2017-May-16 13:59N 44°03' E 009°51'0 0.1
2017-May-16 13:29N 44°03' E 009°51'0 0.1
2017-May-16 12:59N 44°03' E 009°51'0 0.1
2017-May-16 12:29N 44°03' E 009°51'0 0.1
2017-May-16 11:59N 44°03' E 009°51'0 0.1
2017-May-16 11:29N 44°03' E 009°51'0 0.0
2017-May-16 10:56N 44°03' E 009°51'0 0.0
2017-May-16 10:29N 44°03' E 009°51'0 0.0
2017-May-16 09:59N 44°03' E 009°51'0 0.1
2017-May-16 09:29N 44°03' E 009°51'0 0.0
2017-May-16 08:59N 44°03' E 009°51'0 0.1
2017-May-16 08:26N 44°03' E 009°51'0 0.0
2017-May-16 07:56N 44°03' E 009°51'0 0.0
2017-May-16 07:29N 44°03' E 009°51'0 0.0
2017-May-16 06:59N 44°03' E 009°51'0 0.0
2017-May-16 06:29N 44°03' E 009°51'0 0.0
2017-May-16 05:59N 44°03' E 009°51'0 0.0
2017-May-16 05:29N 44°03' E 009°51'0 0.0
2017-May-16 04:59N 44°03' E 009°51'0 0.0
2017-May-16 04:29N 44°03' E 009°51'0 0.0
2017-May-16 03:59N 44°03' E 009°51'  

Dump ship's entire track history